Time;durP1;ratioP1;P1;durP2;ratioP2;P2;SDS_P1;SDS_P2;PMS_P1;PMS_P2;Temp;Humidity;BMP_temperature;BMP_pressure;BME280_temperature;BME280_humidity;BME280_pressure;Samples;Min_cycle;Max_cycle;Signal;HPM_P1;HPM_P2
2021/12/25 00:01:29;;;;;;;4.88;0.93;;;-1.00;99.90;;;;;;4833928;29;20056;-80
2021/12/25 00:03:56;;;;;;;5.18;0.95;;;-1.00;99.90;;;;;;4830576;29;20044;-80
2021/12/25 00:06:24;;;;;;;9.88;0.70;;;-1.00;99.90;;;;;;4846321;29;20037;-80
2021/12/25 00:08:50;;;;;;;4.45;0.88;;;-1.00;99.90;;;;;;4830034;29;20038;-81
2021/12/25 00:11:16;;;;;;;4.45;0.90;;;-1.00;99.90;;;;;;4846660;29;20050;-80
2021/12/25 00:13:42;;;;;;;6.53;0.90;;;-1.10;99.90;;;;;;4845559;29;20048;-81
2021/12/25 00:16:09;;;;;;;7.28;0.75;;;-1.10;99.90;;;;;;4837455;29;20073;-80
2021/12/25 00:18:36;;;;;;;4.63;1.00;;;-1.20;99.90;;;;;;4831035;29;20046;-81
2021/12/25 00:21:02;;;;;;;6.72;0.82;;;-1.20;99.90;;;;;;4828294;29;20446;-80
2021/12/25 00:23:28;;;;;;;8.13;0.88;;;-1.20;99.90;;;;;;4830753;29;20170;-80
2021/12/25 00:26:02;;;;;;;4.00;1.07;;;-1.30;99.90;;;;;;4860507;29;20105;-80
2021/12/25 00:31:27;;;;;;;8.23;0.73;;;-1.30;99.90;;;;;;4861330;29;20056;-80
2021/12/25 00:33:58;;;;;;;2.75;0.63;;;-1.30;99.90;;;;;;4863059;29;20038;-79
2021/12/25 00:36:24;;;;;;;8.30;0.75;;;-1.30;99.90;;;;;;4820995;29;20168;-79
2021/12/25 00:38:52;;;;;;;5.45;0.80;;;-1.30;99.90;;;;;;4849281;29;20498;-79
2021/12/25 00:41:19;;;;;;;5.53;0.90;;;-1.40;99.90;;;;;;4844961;29;20053;-80
2021/12/25 00:43:46;;;;;;;4.80;0.63;;;-1.40;99.90;;;;;;4839550;29;20696;-79
2021/12/25 00:46:12;;;;;;;3.65;0.70;;;-1.40;99.90;;;;;;4862933;29;20494;-79
2021/12/25 00:48:38;;;;;;;5.83;1.20;;;-1.30;99.90;;;;;;4862874;29;20048;-79
2021/12/25 00:51:05;;;;;;;4.60;1.23;;;-1.40;99.90;;;;;;4829628;29;20046;-79
2021/12/25 00:53:31;;;;;;;4.45;0.80;;;-1.40;99.90;;;;;;4832064;29;20294;-79
2021/12/25 00:55:57;;;;;;;3.38;0.77;;;-1.50;99.90;;;;;;4845705;29;20169;-79
2021/12/25 00:58:23;;;;;;;5.53;0.70;;;-1.50;99.90;;;;;;4833420;29;20037;-79
2021/12/25 01:00:49;;;;;;;3.42;0.85;;;-1.50;99.90;;;;;;4846921;29;20056;-79
2021/12/25 01:03:15;;;;;;;6.35;0.63;;;-1.10;99.90;;;;;;4833615;29;20064;-79
2021/12/25 01:05:41;;;;;;;3.00;0.60;;;-0.80;99.90;;;;;;4847130;29;20059;-79
2021/12/25 01:08:07;;;;;;;4.83;0.63;;;-0.80;99.90;;;;;;4851344;29;20080;-79
2021/12/25 01:10:34;;;;;;;8.27;0.77;;;-0.90;99.90;;;;;;4848366;29;20068;-79
2021/12/25 01:15:45;;;;;;;2.88;0.95;;;-1.20;99.90;;;;;;4848206;29;20057;-79
2021/12/25 01:19:00;;;;;;;5.22;0.60;;;-1.30;99.90;;;;;;4847998;29;20042;-79
2021/12/25 01:47:46;;;;;;;5.97;0.60;;;-2.00;99.90;;;;;;4858695;29;20041;-78
2021/12/25 01:49:59;;;;;;;5.03;0.52;;;-2.00;99.90;;;;;;4860496;29;20106;-78
2021/12/25 01:52:30;;;;;;;4.93;0.50;;;-2.10;99.90;;;;;;4843697;29;20418;-78
2021/12/25 01:55:02;;;;;;;3.30;0.60;;;-2.00;99.90;;;;;;4830013;29;20045;-78
2021/12/25 01:57:30;;;;;;;4.28;0.40;;;-2.00;99.90;;;;;;4858047;29;20041;-78
2021/12/25 01:59:57;;;;;;;5.45;0.40;;;-2.10;99.90;;;;;;4858694;29;20455;-78
2021/12/25 02:02:24;;;;;;;4.22;0.57;;;-2.20;99.90;;;;;;4842061;29;20052;-78
2021/12/25 02:04:50;;;;;;;2.90;0.32;;;-2.20;99.90;;;;;;4842976;29;20056;-78
2021/12/25 02:07:18;;;;;;;2.35;0.43;;;-2.30;99.90;;;;;;4842648;29;20393;-77
2021/12/25 02:09:43;;;;;;;1.10;0.30;;;-2.30;99.90;;;;;;4856743;29;20093;-78
2021/12/25 02:12:11;;;;;;;3.70;0.70;;;-2.30;99.90;;;;;;4826495;29;20081;-78
2021/12/25 02:14:38;;;;;;;5.03;0.30;;;-2.30;99.90;;;;;;4827159;29;20049;-78
2021/12/25 02:20:16;;;;;;;4.05;0.50;;;-2.40;99.90;;;;;;4850081;29;20132;-77
2021/12/25 02:22:42;;;;;;;2.92;0.35;;;-2.40;99.90;;;;;;4826189;29;20041;-77
2021/12/25 02:25:08;;;;;;;4.90;0.30;;;-2.40;99.90;;;;;;4824466;29;20050;-77
2021/12/25 02:27:34;;;;;;;4.90;0.30;;;-2.40;99.90;;;;;;4820509;29;20045;-77
2021/12/25 02:30:00;;;;;;;5.07;0.73;;;-2.50;99.90;;;;;;4824215;29;20053;-77
2021/12/25 02:32:25;;;;;;;7.10;0.40;;;-2.50;99.90;;;;;;4826642;29;20049;-77
2021/12/25 02:34:51;;;;;;;3.53;0.60;;;-2.50;99.90;;;;;;4858212;29;20080;-77
2021/12/25 02:37:17;;;;;;;1.97;0.40;;;-2.60;99.90;;;;;;4819560;29;20507;-77
2021/12/25 02:39:43;;;;;;;4.53;0.37;;;-2.60;99.90;;;;;;4825631;29;20095;-77
2021/12/25 02:42:09;;;;;;;3.72;0.30;;;-2.60;99.90;;;;;;4830250;29;20207;-77
2021/12/25 02:44:35;;;;;;;3.53;0.30;;;-2.70;99.90;;;;;;4815071;29;20543;-77
2021/12/25 02:47:09;;;;;;;3.23;0.30;;;-2.80;99.90;;;;;;4810134;29;20132;-77
2021/12/25 02:49:36;;;;;;;4.68;0.35;;;-2.80;99.90;;;;;;4826884;29;20517;-77
2021/12/25 02:52:02;;;;;;;1.05;0.20;;;-2.80;99.90;;;;;;4824912;29;20132;-77
2021/12/25 02:54:28;;;;;;;2.47;0.20;;;-2.90;99.90;;;;;;4825866;29;20049;-77
2021/12/25 02:56:53;;;;;;;2.27;0.30;;;-2.90;99.90;;;;;;4825795;29;20406;-77
2021/12/25 02:59:19;;;;;;;4.97;0.43;;;-2.80;99.90;;;;;;4840925;29;20049;-77
2021/12/25 03:01:45;;;;;;;5.47;0.40;;;-2.90;99.90;;;;;;4824745;29;20049;-77
2021/12/25 03:04:11;;;;;;;3.27;0.40;;;-2.90;99.90;;;;;;4825315;29;20046;-77
2021/12/25 03:06:37;;;;;;;5.65;1.15;;;-2.90;99.90;;;;;;4855283;29;20041;-77
2021/12/25 03:09:05;;;;;;;3.10;0.40;;;-2.90;99.90;;;;;;4853085;29;20053;-77
2021/12/25 03:11:32;;;;;;;3.67;0.50;;;-3.00;99.90;;;;;;4839875;29;20045;-77
2021/12/25 03:14:04;;;;;;;2.63;0.20;;;-2.90;99.90;;;;;;4840489;29;20049;-77
2021/12/25 03:16:29;;;;;;;1.38;0.30;;;-3.00;99.90;;;;;;4822255;29;20080;-77
2021/12/25 03:18:57;;;;;;;2.33;0.20;;;-3.00;99.90;;;;;;4826630;29;20467;-77
2021/12/25 03:21:23;;;;;;;4.97;0.40;;;-3.10;99.90;;;;;;4839849;29;20128;-77
2021/12/25 03:23:52;;;;;;;3.47;0.40;;;-3.10;99.90;;;;;;4825262;29;20442;-77
2021/12/25 03:26:18;;;;;;;5.47;0.30;;;-3.10;99.90;;;;;;4810373;29;20038;-77
2021/12/25 03:28:46;;;;;;;2.58;0.30;;;-3.10;99.90;;;;;;4855343;29;20037;-77
2021/12/25 03:31:20;;;;;;;3.05;0.38;;;-3.20;99.90;;;;;;4824192;29;20116;-77
2021/12/25 03:33:51;;;;;;;1.60;0.20;;;-3.20;99.90;;;;;;4853255;29;20065;-77
2021/12/25 03:36:18;;;;;;;1.42;0.22;;;-3.20;99.90;;;;;;4855259;29;20045;-77
2021/12/25 03:38:45;;;;;;;1.30;0.25;;;-3.20;99.90;;;;;;4840227;29;20053;-77
2021/12/25 03:41:12;;;;;;;3.38;0.32;;;-3.20;99.90;;;;;;4825005;29;20033;-77
2021/12/25 03:43:40;;;;;;;0.75;0.20;;;-3.20;99.90;;;;;;4839895;29;20045;-77
2021/12/25 03:46:09;;;;;;;3.45;0.30;;;-3.30;99.90;;;;;;4839318;29;20041;-77
2021/12/25 03:59:07;;;;;;;1.60;0.30;;;-3.40;99.90;;;;;;4855110;29;20057;-77
2021/12/25 04:04:13;;;;;;;2.25;0.20;;;-3.40;99.90;;;;;;4854553;29;20578;-77
2021/12/25 04:06:46;;;;;;;2.90;0.28;;;-3.50;99.90;;;;;;4839918;29;20052;-77
2021/12/25 04:09:30;;;;;;;1.38;0.40;;;-3.50;99.90;;;;;;4839512;29;20418;-77
2021/12/25 04:11:58;;;;;;;1.25;0.20;;;-3.50;99.90;;;;;;4838488;29;20074;-77
2021/12/25 04:14:24;;;;;;;1.75;0.40;;;-3.50;99.90;;;;;;4855172;29;20041;-77
2021/12/25 04:16:50;;;;;;;2.78;0.30;;;-3.60;99.90;;;;;;4837092;29;20123;-77
2021/12/25 04:19:17;;;;;;;1.13;0.20;;;-3.60;99.90;;;;;;4824375;29;20049;-77
2021/12/25 04:24:43;;;;;;;1.17;0.20;;;-3.60;99.90;;;;;;4818529;29;20106;-77
2021/12/25 04:27:13;;;;;;;1.20;0.35;;;-3.60;99.90;;;;;;4834903;29;20581;-77
2021/12/25 04:29:47;;;;;;;1.35;0.30;;;-3.60;99.90;;;;;;4824840;29;20121;-77
2021/12/25 04:32:47;;;;;;;4.13;0.30;;;-3.50;99.90;;;;;;4826415;29;20513;-77
2021/12/25 05:04:52;;;;;;;0.70;0.20;;;-3.90;99.90;;;;;;4858520;29;20417;-77
2021/12/25 05:07:18;;;;;;;1.23;0.30;;;-3.90;99.90;;;;;;4842719;29;20060;-77
2021/12/25 05:09:44;;;;;;;6.50;0.33;;;-4.00;99.90;;;;;;4826847;29;20562;-77
2021/12/25 05:12:10;;;;;;;0.80;0.20;;;-4.00;99.90;;;;;;4841844;29;20057;-77
2021/12/25 05:14:35;;;;;;;3.65;0.20;;;-4.00;99.90;;;;;;4843017;29;20094;-77
2021/12/25 05:17:02;;;;;;;2.07;0.20;;;-4.00;99.90;;;;;;4827870;29;20665;-77
2021/12/25 05:19:27;;;;;;;1.38;0.20;;;-4.10;99.90;;;;;;4857527;29;20049;-77
2021/12/25 05:21:53;;;;;;;0.83;0.20;;;-4.10;99.90;;;;;;4811541;29;20687;-77
2021/12/25 05:24:19;;;;;;;3.97;0.30;;;-4.10;99.90;;;;;;4842941;29;20129;-77
2021/12/25 05:26:45;;;;;;;0.87;0.20;;;-4.10;99.90;;;;;;4830387;29;20125;-77
2021/12/25 05:29:11;;;;;;;1.47;0.70;;;-4.10;99.90;;;;;;4842284;29;20037;-77
2021/12/25 05:31:37;;;;;;;1.17;0.20;;;-4.10;99.90;;;;;;4842930;29;20106;-77
2021/12/25 05:34:04;;;;;;;1.92;0.20;;;-4.10;99.90;;;;;;4842422;29;20042;-77
2021/12/25 05:36:30;;;;;;;0.73;0.30;;;-4.20;99.90;;;;;;4862416;29;20109;-77
2021/12/25 05:38:59;;;;;;;1.08;0.13;;;-4.20;99.90;;;;;;4826933;29;20040;-76
2021/12/25 05:41:30;;;;;;;3.15;0.30;;;-4.20;99.90;;;;;;4841521;29;20041;-76
2021/12/25 05:43:57;;;;;;;2.95;0.20;;;-4.20;99.90;;;;;;4841306;29;20041;-76
2021/12/25 05:46:24;;;;;;;1.85;0.20;;;-4.30;99.90;;;;;;4842654;29;20110;-76
2021/12/25 05:48:50;;;;;;;0.60;0.20;;;-4.30;99.90;;;;;;4827091;29;20049;-76
2021/12/25 05:51:18;;;;;;;1.02;0.30;;;-4.30;99.90;;;;;;4826499;29;20044;-76
2021/12/25 05:53:44;;;;;;;1.40;0.20;;;-4.30;99.90;;;;;;4841989;29;20042;-76
2021/12/25 05:56:10;;;;;;;1.33;0.20;;;-4.30;99.90;;;;;;4827186;29;20565;-76
2021/12/25 05:58:35;;;;;;;3.03;0.30;;;-4.30;99.90;;;;;;4827428;29;20137;-76
2021/12/25 06:01:03;;;;;;;3.93;0.30;;;-4.40;99.90;;;;;;4825961;29;20621;-76
2021/12/25 06:03:29;;;;;;;2.05;0.20;;;-4.30;99.90;;;;;;4842436;29;20520;-76
2021/12/25 06:05:54;;;;;;;0.87;0.20;;;-4.40;99.90;;;;;;4841924;29;20069;-76
2021/12/25 06:08:21;;;;;;;3.03;0.40;;;-4.40;99.90;;;;;;4810304;29;20048;-76
2021/12/25 06:10:47;;;;;;;0.68;0.20;;;-4.40;99.90;;;;;;4840835;29;20116;-76
2021/12/25 06:13:17;;;;;;;1.93;0.30;;;-4.30;99.90;;;;;;4841929;29;20077;-76
2021/12/25 06:15:43;;;;;;;2.17;0.30;;;-4.30;99.90;;;;;;4827728;29;20162;-76
2021/12/25 06:18:10;;;;;;;2.03;0.43;;;-4.30;99.90;;;;;;4842237;29;20204;-76
2021/12/25 06:20:36;;;;;;;2.22;0.40;;;-4.30;99.90;;;;;;4859241;29;20049;-76
2021/12/25 06:23:02;;;;;;;3.22;0.30;;;-4.30;99.90;;;;;;4841883;29;20046;-76
2021/12/25 06:25:28;;;;;;;1.83;0.30;;;-4.40;99.90;;;;;;4811398;29;20571;-76
2021/12/25 06:27:53;;;;;;;1.50;0.20;;;-4.30;99.90;;;;;;4811705;29;20443;-76
2021/12/25 06:30:19;;;;;;;0.77;0.30;;;-4.30;99.90;;;;;;4809269;29;20046;-76
2021/12/25 06:32:45;;;;;;;2.07;0.30;;;-4.30;99.90;;;;;;4857287;29;20054;-76
2021/12/25 06:35:12;;;;;;;1.27;0.30;;;-4.30;99.90;;;;;;4841559;29;20057;-76
2021/12/25 06:37:40;;;;;;;1.48;0.40;;;-4.40;99.90;;;;;;4826915;29;20049;-76
2021/12/25 06:40:07;;;;;;;1.33;0.20;;;-4.40;99.90;;;;;;4841085;29;20110;-76
2021/12/25 06:42:33;;;;;;;1.30;0.60;;;-4.50;99.90;;;;;;4831247;29;20042;-76
2021/12/25 06:44:59;;;;;;;2.63;0.50;;;-4.50;99.90;;;;;;4837909;29;20050;-76
2021/12/25 06:47:24;;;;;;;1.70;0.73;;;-4.50;99.90;;;;;;4818349;29;20515;-76
2021/12/25 06:49:50;;;;;;;2.40;0.23;;;-4.50;99.90;;;;;;4826024;29;20121;-76
2021/12/25 06:52:16;;;;;;;1.43;0.30;;;-4.50;99.90;;;;;;4823387;29;20060;-76
2021/12/25 06:54:42;;;;;;;1.93;0.30;;;-4.60;99.90;;;;;;4840657;29;20045;-76
2021/12/25 06:57:08;;;;;;;2.90;0.20;;;-4.60;99.90;;;;;;4826529;29;20056;-76
2021/12/25 06:59:33;;;;;;;1.43;0.20;;;-4.70;99.90;;;;;;4826116;29;20141;-76
2021/12/25 07:01:59;;;;;;;2.13;0.30;;;-4.70;99.90;;;;;;4823485;29;20477;-76
2021/12/25 07:04:25;;;;;;;3.50;0.50;;;-4.70;99.90;;;;;;4810825;29;20041;-76
2021/12/25 07:06:50;;;;;;;2.00;0.30;;;-4.70;99.90;;;;;;4841689;29;20109;-76
2021/12/25 07:09:16;;;;;;;3.80;0.30;;;-4.70;99.90;;;;;;4810829;29;20132;-76
2021/12/25 07:11:43;;;;;;;1.30;0.40;;;-4.70;99.90;;;;;;4810549;29;20755;-77
2021/12/25 07:14:12;;;;;;;2.05;0.30;;;-4.70;99.90;;;;;;4841433;29;20406;-76
2021/12/25 07:16:39;;;;;;;1.05;0.40;;;-4.70;99.90;;;;;;4820936;29;20128;-76
2021/12/25 07:19:05;;;;;;;1.25;0.32;;;-4.70;99.90;;;;;;4811481;29;20481;-76
2021/12/25 07:21:31;;;;;;;1.85;0.30;;;-4.80;99.90;;;;;;4855729;29;20057;-76
2021/12/25 07:23:57;;;;;;;2.15;0.35;;;-4.80;99.90;;;;;;4846311;29;20076;-76
2021/12/25 07:26:26;;;;;;;1.48;0.35;;;-4.80;99.90;;;;;;4841322;29;20038;-76
2021/12/25 07:28:52;;;;;;;2.95;0.20;;;-4.80;99.90;;;;;;4826139;29;20041;-76
2021/12/25 07:31:20;;;;;;;1.70;0.30;;;-4.80;99.90;;;;;;4824127;29;20045;-76
2021/12/25 07:33:46;;;;;;;3.83;0.40;;;-4.80;99.90;;;;;;4841386;29;20082;-76
2021/12/25 07:36:13;;;;;;;2.80;0.68;;;-4.80;99.90;;;;;;4851538;29;20064;-76
2021/12/25 07:38:39;;;;;;;3.47;0.80;;;-4.80;99.90;;;;;;4825541;29;20530;-76
2021/12/25 07:41:05;;;;;;;2.05;0.30;;;-4.80;99.90;;;;;;4838754;29;20490;-76
2021/12/25 07:43:31;;;;;;;0.80;0.20;;;-4.80;99.90;;;;;;4827773;29;20041;-76
2021/12/25 07:45:57;;;;;;;2.17;0.43;;;-4.80;99.90;;;;;;4856010;29;20309;-76
2021/12/25 07:48:26;;;;;;;1.02;0.20;;;-4.80;99.90;;;;;;4855589;29;20129;-76
2021/12/25 07:50:53;;;;;;;1.92;0.35;;;-4.80;99.90;;;;;;4839993;29;20041;-76
2021/12/25 07:53:18;;;;;;;1.55;0.30;;;-4.80;99.90;;;;;;4855583;29;20060;-76
2021/12/25 07:55:47;;;;;;;3.27;0.20;;;-4.80;99.90;;;;;;4839724;29;20505;-76
2021/12/25 07:58:14;;;;;;;2.92;0.47;;;-4.80;99.90;;;;;;4821615;29;20306;-76
2021/12/25 08:00:40;;;;;;;3.00;0.40;;;-4.80;99.90;;;;;;4824659;29;20072;-76
2021/12/25 08:03:07;;;;;;;1.65;0.47;;;-4.80;99.90;;;;;;4840030;29;20118;-76
2021/12/25 08:05:33;;;;;;;1.13;0.20;;;-4.80;99.90;;;;;;4839711;29;20050;-76
2021/12/25 08:07:59;;;;;;;4.80;0.35;;;-4.80;99.90;;;;;;4854335;29;20044;-76
2021/12/25 08:10:25;;;;;;;4.72;0.30;;;-4.70;99.90;;;;;;4854326;29;20061;-76
2021/12/25 08:12:54;;;;;;;1.83;0.40;;;-4.70;99.90;;;;;;4824963;29;20049;-76
2021/12/25 08:15:23;;;;;;;2.42;0.40;;;-4.60;99.90;;;;;;4830493;29;20295;-76
2021/12/25 08:17:50;;;;;;;3.40;0.35;;;-4.60;99.90;;;;;;4839401;29;20041;-76
2021/12/25 08:20:17;;;;;;;1.63;0.40;;;-4.60;99.90;;;;;;4839651;29;20124;-77
2021/12/25 08:22:43;;;;;;;1.65;0.47;;;-4.60;99.90;;;;;;4824256;29;20129;-77
2021/12/25 08:25:10;;;;;;;1.35;0.38;;;-4.60;99.90;;;;;;4839309;29;20566;-77
2021/12/25 08:27:36;;;;;;;1.67;0.40;;;-4.60;99.90;;;;;;4839150;29;20109;-77
2021/12/25 08:30:05;;;;;;;1.92;0.60;;;-4.60;99.90;;;;;;4824056;29;20580;-77
2021/12/25 08:32:30;;;;;;;3.35;0.60;;;-4.60;99.90;;;;;;4839108;29;20053;-77
2021/12/25 08:34:56;;;;;;;4.53;0.70;;;-4.60;99.90;;;;;;4839248;29;20125;-77
2021/12/25 08:37:24;;;;;;;1.87;0.60;;;-4.60;99.90;;;;;;4824377;29;20045;-77
2021/12/25 08:39:53;;;;;;;4.40;0.45;;;-4.50;99.90;;;;;;4839320;29;20467;-77
2021/12/25 08:42:20;;;;;;;3.97;0.43;;;-4.50;99.90;;;;;;4827205;29;20098;-77
2021/12/25 08:45:30;;;;;;;1.95;0.47;;;-4.50;99.90;;;;;;4840222;29;20041;-77
2021/12/25 08:47:38;;;;;;;1.00;0.32;;;-4.50;99.90;;;;;;4828851;29;20064;-77
2021/12/25 08:50:08;;;;;;;3.13;0.50;;;-4.30;99.90;;;;;;4833386;29;20037;-77
2021/12/25 08:52:33;;;;;;;2.28;0.50;;;-4.20;99.90;;;;;;4854592;29;20049;-77
2021/12/25 08:54:59;;;;;;;3.80;0.50;;;-4.20;99.90;;;;;;4838845;29;20395;-77
2021/12/25 08:57:25;;;;;;;3.00;0.30;;;-4.20;99.90;;;;;;4825117;29;20041;-77
2021/12/25 08:59:52;;;;;;;4.10;0.40;;;-4.20;99.90;;;;;;4829598;29;20049;-77
2021/12/25 09:02:19;;;;;;;2.42;0.30;;;-4.20;99.90;;;;;;4827952;29;20140;-77
2021/12/25 09:04:47;;;;;;;1.70;0.30;;;-4.20;99.90;;;;;;4822436;29;20045;-77
2021/12/25 09:07:13;;;;;;;1.58;0.38;;;-4.20;99.90;;;;;;4840621;29;21002;-77
2021/12/25 09:09:40;;;;;;;2.63;0.40;;;-4.20;99.90;;;;;;4834240;29;20042;-77
2021/12/25 09:12:11;;;;;;;1.30;0.38;;;-4.20;99.90;;;;;;4834904;29;20053;-77
2021/12/25 09:14:37;;;;;;;1.58;0.40;;;-4.20;99.90;;;;;;4843164;29;20145;-77
2021/12/25 09:17:04;;;;;;;2.95;0.40;;;-4.10;99.90;;;;;;4793001;29;20073;-77
2021/12/25 09:19:29;;;;;;;4.55;0.30;;;-4.10;99.90;;;;;;4806805;29;20725;-77
2021/12/25 09:21:55;;;;;;;2.13;0.40;;;-4.10;99.90;;;;;;4809707;29;20132;-77
2021/12/25 09:24:21;;;;;;;4.23;0.40;;;-4.00;99.90;;;;;;4846832;29;20045;-77
2021/12/25 09:31:56;;;;;;;2.88;0.30;;;-3.90;99.90;;;;;;4871190;29;20512;-79
2021/12/25 09:34:22;;;;;;;2.57;0.30;;;-3.90;99.90;;;;;;4840766;29;20052;-79
2021/12/25 09:36:48;;;;;;;1.20;0.30;;;-3.80;99.90;;;;;;4823109;29;20053;-79
2021/12/25 09:39:14;;;;;;;2.63;0.30;;;-3.80;99.90;;;;;;4830643;29;20060;-79
2021/12/25 09:41:41;;;;;;;3.30;0.30;;;-3.80;99.90;;;;;;4825484;29;20331;-79
2021/12/25 09:44:10;;;;;;;3.30;0.35;;;-3.70;99.90;;;;;;4862583;29;20285;-80
2021/12/25 09:46:36;;;;;;;1.53;0.30;;;-3.70;99.90;;;;;;4852012;29;20124;-79
2021/12/25 09:49:03;;;;;;;2.07;0.33;;;-3.60;99.90;;;;;;4835220;29;20045;-79
2021/12/25 09:51:28;;;;;;;3.75;0.73;;;-3.60;99.90;;;;;;4818618;29;20041;-79
2021/12/25 09:53:55;;;;;;;3.40;0.50;;;-3.60;99.90;;;;;;4864326;29;20048;-79
2021/12/25 09:56:21;;;;;;;2.65;0.50;;;-3.60;99.90;;;;;;4841574;29;20041;-79
2021/12/25 09:58:47;;;;;;;2.03;0.30;;;-3.60;99.90;;;;;;4846714;29;20049;-79
2021/12/25 10:01:30;;;;;;;2.95;0.40;;;-3.50;99.90;;;;;;4826189;29;20093;-80
2021/12/25 10:03:56;;;;;;;1.90;0.30;;;-3.50;99.90;;;;;;4838641;29;20401;-79
2021/12/25 10:06:33;;;;;;;1.97;0.30;;;-3.50;99.90;;;;;;4809748;29;20041;-79
2021/12/25 10:09:20;;;;;;;1.63;0.40;;;-3.50;99.90;;;;;;4853103;29;20037;-79
2021/12/25 10:11:59;;;;;;;2.50;0.20;;;-3.40;99.90;;;;;;4836628;29;20408;-79
2021/12/25 10:14:26;;;;;;;2.35;0.20;;;-3.50;99.90;;;;;;4836234;29;20041;-79
2021/12/25 10:16:52;;;;;;;2.03;0.40;;;-3.40;99.90;;;;;;4843128;29;20053;-79
2021/12/25 10:19:21;;;;;;;3.33;0.37;;;-3.40;99.90;;;;;;4846467;29;20034;-78
2021/12/25 10:22:01;;;;;;;4.03;0.50;;;-3.40;99.90;;;;;;4842399;29;20068;-78
2021/12/25 10:24:27;;;;;;;2.13;0.30;;;-3.30;99.90;;;;;;4831468;29;20123;-78
2021/12/25 10:27:07;;;;;;;3.35;0.70;;;-3.30;99.90;;;;;;4860905;29;20034;-78
2021/12/25 10:29:32;;;;;;;4.18;0.43;;;-3.20;99.90;;;;;;4847390;29;20042;-77
2021/12/25 10:32:19;;;;;;;1.15;0.20;;;-3.30;99.90;;;;;;4862834;29;20084;-78
2021/12/25 10:34:45;;;;;;;1.00;0.30;;;-3.20;99.90;;;;;;4831103;29;20107;-78
2021/12/25 10:37:14;;;;;;;4.25;0.47;;;-3.20;99.90;;;;;;4832382;29;20025;-78
2021/12/25 10:39:40;;;;;;;2.97;0.50;;;-3.10;99.90;;;;;;4829860;29;20029;-78
2021/12/25 10:42:19;;;;;;;6.00;0.40;;;-3.10;99.90;;;;;;4873702;29;20056;-79
2021/12/25 10:44:55;;;;;;;5.85;0.68;;;-3.10;99.90;;;;;;4848592;29;20068;-79
2021/12/25 10:47:28;;;;;;;1.23;0.20;;;-3.00;99.90;;;;;;4855247;29;20419;-78
2021/12/25 10:49:58;;;;;;;2.00;0.40;;;-3.00;99.90;;;;;;4838969;29;20045;-77
2021/12/25 10:52:39;;;;;;;2.88;0.30;;;-3.00;99.90;;;;;;4839058;29;20060;-78
2021/12/25 10:55:24;;;;;;;4.30;0.50;;;-2.90;99.90;;;;;;4845718;29;20050;-78
2021/12/25 10:57:52;;;;;;;2.13;0.50;;;-2.80;99.90;;;;;;4838787;29;20033;-78
2021/12/25 11:00:21;;;;;;;1.75;0.50;;;-2.80;99.90;;;;;;4856111;29;20056;-78
2021/12/25 11:02:55;;;;;;;2.22;0.28;;;-2.80;99.90;;;;;;4839926;29;20056;-78
2021/12/25 11:05:26;;;;;;;0.85;0.25;;;-2.70;99.90;;;;;;4841401;29;20074;-78
2021/12/25 11:08:19;;;;;;;3.23;0.30;;;-2.70;99.90;;;;;;4840714;29;20045;-78
2021/12/25 11:10:50;;;;;;;2.35;0.50;;;-2.70;99.90;;;;;;4864850;29;20072;-78
2021/12/25 11:13:20;;;;;;;2.15;0.30;;;-2.70;99.90;;;;;;4836100;29;20478;-78
2021/12/25 11:15:46;;;;;;;1.55;0.30;;;-2.60;99.90;;;;;;4833886;29;20057;-78
2021/12/25 11:18:14;;;;;;;2.47;1.10;;;-2.60;99.90;;;;;;4833846;29;20076;-78
2021/12/25 11:20:42;;;;;;;2.67;0.40;;;-2.50;99.90;;;;;;4829955;29;20120;-78
2021/12/25 11:23:11;;;;;;;3.53;0.35;;;-2.50;99.90;;;;;;4853512;29;20041;-78
2021/12/25 11:25:39;;;;;;;1.00;0.25;;;-2.40;99.90;;;;;;4827122;29;20052;-78
2021/12/25 11:28:09;;;;;;;3.03;0.70;;;-2.40;99.90;;;;;;4837242;29;20037;-78
2021/12/25 11:30:39;;;;;;;5.30;1.10;;;-2.40;99.90;;;;;;4826684;29;20069;-79
2021/12/25 11:33:05;;;;;;;5.43;1.25;;;-2.40;99.90;;;;;;4816247;29;20049;-77
2021/12/25 11:35:34;;;;;;;6.17;1.00;;;-2.30;99.90;;;;;;4809351;29;20070;-78
2021/12/25 11:38:01;;;;;;;2.30;0.45;;;-2.30;99.90;;;;;;4839441;29;20528;-78
2021/12/25 11:40:29;;;;;;;5.13;1.17;;;-2.30;99.90;;;;;;4822327;29;20046;-78
2021/12/25 11:42:57;;;;;;;3.75;0.80;;;-2.30;99.90;;;;;;4821516;29;20049;-78
2021/12/25 11:45:37;;;;;;;3.25;0.60;;;-2.20;99.90;;;;;;4825617;29;20077;-78
2021/12/25 11:48:20;;;;;;;2.55;0.50;;;-2.20;99.90;;;;;;4839306;29;20041;-78
2021/12/25 11:50:49;;;;;;;3.78;0.80;;;-2.20;99.90;;;;;;4821069;29;20041;-77
2021/12/25 11:53:41;;;;;;;4.32;0.90;;;-2.10;99.90;;;;;;4824244;29;20109;-77
2021/12/25 11:58:57;;;;;;;5.95;0.60;;;-2.10;99.90;;;;;;4839023;29;20057;-79
2021/12/25 12:01:29;;;;;;;3.15;0.60;;;-2.10;99.90;;;;;;4826325;29;20088;-79
2021/12/25 12:04:11;;;;;;;1.40;0.30;;;-2.00;99.90;;;;;;4825860;29;20136;-79
2021/12/25 12:06:46;;;;;;;2.53;0.65;;;-2.00;99.90;;;;;;4818994;29;20113;-79
2021/12/25 12:09:33;;;;;;;2.47;0.50;;;-2.00;99.90;;;;;;4842278;29;20045;-79
2021/12/25 12:12:05;;;;;;;2.85;0.38;;;-1.90;99.90;;;;;;4826476;29;20046;-78
2021/12/25 12:14:32;;;;;;;2.78;0.30;;;-1.90;99.90;;;;;;4825267;29;20045;-79
2021/12/25 12:17:01;;;;;;;4.60;0.40;;;-1.80;99.90;;;;;;4825050;29;20045;-79
2021/12/25 12:19:37;;;;;;;2.72;0.70;;;-1.80;99.90;;;;;;4824152;29;20364;-78
2021/12/25 12:27:10;;;;;;;4.88;0.73;;;-1.80;99.90;;;;;;4838857;29;20060;-78
2021/12/25 12:29:38;;;;;;;2.13;0.47;;;-1.80;99.90;;;;;;4808039;29;20080;-79
2021/12/25 12:32:06;;;;;;;4.28;0.50;;;-1.90;99.90;;;;;;4824497;29;20105;-78
2021/12/25 12:34:36;;;;;;;3.72;1.10;;;-1.90;99.90;;;;;;4809188;29;20487;-78
2021/12/25 12:37:14;;;;;;;3.25;1.00;;;-1.80;99.90;;;;;;4808907;29;20049;-78
2021/12/25 12:39:40;;;;;;;5.55;1.17;;;-1.80;99.90;;;;;;4823125;29;20057;-78
2021/12/25 12:42:09;;;;;;;3.60;0.70;;;-1.80;99.90;;;;;;4808577;29;20049;-78
2021/12/25 12:44:36;;;;;;;3.67;0.40;;;-1.80;99.90;;;;;;4809333;29;21189;-79
2021/12/25 12:47:20;;;;;;;10.55;3.22;;;-1.70;99.90;;;;;;4828108;29;20144;-78
2021/12/25 12:49:46;;;;;;;4.13;0.77;;;-1.70;99.90;;;;;;4824106;29;20159;-78
2021/12/25 12:52:24;;;;;;;3.50;1.00;;;-1.80;99.90;;;;;;4840792;29;20132;-78
2021/12/25 12:55:22;;;;;;;2.08;0.50;;;-1.80;99.90;;;;;;4827843;29;20049;-78
2021/12/25 12:57:48;;;;;;;1.20;0.38;;;-1.70;99.90;;;;;;4823868;29;20054;-78
2021/12/25 13:00:20;;;;;;;2.50;0.60;;;-1.80;99.90;;;;;;4827121;29;20058;-78
2021/12/25 13:02:55;;;;;;;3.05;0.77;;;-1.70;99.90;;;;;;4827319;29;20045;-78
2021/12/25 13:05:25;;;;;;;3.88;0.85;;;-1.70;99.90;;;;;;4826714;29;20053;-78
2021/12/25 13:07:54;;;;;;;1.15;0.30;;;-1.70;99.90;;;;;;4825731;29;20490;-78
2021/12/25 13:10:36;;;;;;;2.80;0.40;;;-1.70;99.90;;;;;;4812927;29;20049;-78
2021/12/25 13:13:15;;;;;;;1.50;0.50;;;-1.70;99.90;;;;;;4828164;29;20049;-78
2021/12/25 13:15:44;;;;;;;3.45;0.50;;;-1.70;99.90;;;;;;4832151;29;20079;-78
2021/12/25 13:18:11;;;;;;;2.25;0.70;;;-1.80;99.90;;;;;;4828561;29;20053;-79
2021/12/25 13:20:50;;;;;;;3.75;0.40;;;-1.80;99.90;;;;;;4813365;29;20099;-79
2021/12/25 13:23:22;;;;;;;1.42;0.38;;;-1.80;99.90;;;;;;4831495;29;20041;-79
2021/12/25 13:25:57;;;;;;;2.15;0.50;;;-1.80;99.90;;;;;;4836004;29;20053;-79
2021/12/25 13:28:25;;;;;;;1.73;0.60;;;-1.80;99.90;;;;;;4828282;29;20045;-79
2021/12/25 13:30:57;;;;;;;2.90;0.40;;;-1.90;99.90;;;;;;4813097;29;20459;-79
2021/12/25 13:33:27;;;;;;;3.10;0.57;;;-1.90;99.90;;;;;;4825907;29;20057;-79
2021/12/25 13:36:21;;;;;;;1.20;0.50;;;-2.00;99.90;;;;;;4824406;29;20045;-79
2021/12/25 13:38:59;;;;;;;3.30;0.47;;;-2.00;99.90;;;;;;4824004;29;20439;-79
2021/12/25 13:41:52;;;;;;;1.98;0.50;;;-2.00;99.90;;;;;;4826878;29;20068;-79
2021/12/25 13:44:29;;;;;;;2.67;0.50;;;-2.00;99.90;;;;;;4812004;29;20057;-79
2021/12/25 13:47:23;;;;;;;2.85;0.43;;;-1.90;99.90;;;;;;4841848;29;20434;-80
2021/12/25 13:50:03;;;;;;;2.30;0.40;;;-1.90;99.90;;;;;;4826807;29;20115;-80
2021/12/25 13:52:34;;;;;;;1.65;0.50;;;-1.90;99.90;;;;;;4841837;29;20067;-80
2021/12/25 13:55:14;;;;;;;0.80;0.32;;;-1.90;99.90;;;;;;4818882;29;20092;-79
2021/12/25 13:57:47;;;;;;;2.30;0.40;;;-1.90;99.90;;;;;;4826770;29;20046;-79
2021/12/25 14:00:18;;;;;;;2.60;0.52;;;-1.90;99.90;;;;;;4826441;29;20562;-80
2021/12/25 14:02:47;;;;;;;2.53;0.47;;;-1.90;99.90;;;;;;4840481;29;20056;-81
2021/12/25 14:05:18;;;;;;;1.20;0.40;;;-1.90;99.90;;;;;;4821658;29;20049;-79
2021/12/25 14:07:44;;;;;;;1.73;0.40;;;-1.90;99.90;;;;;;4826422;29;20870;-80
2021/12/25 14:10:12;;;;;;;3.13;0.70;;;-2.00;99.90;;;;;;4795890;29;20072;-79
2021/12/25 14:12:40;;;;;;;3.67;0.50;;;-2.00;99.90;;;;;;4825972;29;20053;-80
2021/12/25 14:15:09;;;;;;;3.88;0.63;;;-2.00;99.90;;;;;;4825338;29;20053;-80
2021/12/25 14:17:36;;;;;;;2.40;0.52;;;-2.10;99.90;;;;;;4815651;29;20058;-80
2021/12/25 14:20:06;;;;;;;5.18;1.30;;;-2.10;99.90;;;;;;4839546;29;20068;-80
2021/12/25 14:22:32;;;;;;;1.42;0.40;;;-2.10;99.90;;;;;;4841150;29;20105;-80
2021/12/25 14:24:57;;;;;;;2.70;0.50;;;-2.10;99.90;;;;;;4839668;29;20510;-80
2021/12/25 14:27:23;;;;;;;1.63;0.50;;;-2.10;99.90;;;;;;4824956;29;20053;-80
2021/12/25 14:29:50;;;;;;;2.73;0.50;;;-2.20;99.90;;;;;;4830007;29;20073;-80
2021/12/25 14:32:19;;;;;;;2.03;0.60;;;-2.20;99.90;;;;;;4840725;29;20518;-80